Time;durP1;ratioP1;P1;durP2;ratioP2;P2;SDS_P1;SDS_P2;PMS_P1;PMS_P2;Temp;Humidity;BMP_temperature;BMP_pressure;BME280_temperature;BME280_humidity;BME280_pressure;Samples;Min_cycle;Max_cycle;Signal;HPM_P1;HPM_P2
2023/08/09 00:00:38;;;;;;;5.95;2.90;;;;;;;;;;5150928;27;20472;-73
2023/08/09 00:03:04;;;;;;;4.80;2.83;;;;;;;;;;5151152;27;20023;-74
2023/08/09 00:05:30;;;;;;;7.00;3.13;;;;;;;;;;5150962;27;20030;-73
2023/08/09 00:07:56;;;;;;;3.92;2.10;;;;;;;;;;5150641;27;20491;-73
2023/08/09 00:10:22;;;;;;;3.95;2.63;;;;;;;;;;5151116;27;20372;-74
2023/08/09 00:12:49;;;;;;;5.30;2.70;;;;;;;;;;5150940;27;20033;-76
2023/08/09 00:15:15;;;;;;;5.05;2.50;;;;;;;;;;5150658;27;20034;-73
2023/08/09 00:17:41;;;;;;;3.33;2.20;;;;;;;;;;5151981;27;20336;-74
2023/08/09 00:20:08;;;;;;;5.18;2.17;;;;;;;;;;5151107;27;20022;-74
2023/08/09 00:22:34;;;;;;;5.53;2.50;;;;;;;;;;5150706;27;20023;-74
2023/08/09 00:25:00;;;;;;;3.20;1.95;;;;;;;;;;5150583;27;20897;-74
2023/08/09 00:27:30;;;;;;;4.65;2.47;;;;;;;;;;5150936;27;20052;-75
2023/08/09 00:29:58;;;;;;;5.15;2.50;;;;;;;;;;5149933;27;20384;-75
2023/08/09 00:32:24;;;;;;;4.72;2.67;;;;;;;;;;5151098;27;20062;-75
2023/08/09 00:34:50;;;;;;;3.50;2.33;;;;;;;;;;5150506;27;20476;-74
2023/08/09 00:37:16;;;;;;;4.38;2.70;;;;;;;;;;5150269;27;20034;-75
2023/08/09 00:39:42;;;;;;;4.53;3.00;;;;;;;;;;5150689;27;20050;-76
2023/08/09 00:42:09;;;;;;;4.45;2.38;;;;;;;;;;5150780;27;20061;-76
2023/08/09 00:44:35;;;;;;;3.47;2.17;;;;;;;;;;5150334;27;20576;-75
2023/08/09 00:47:01;;;;;;;4.53;2.67;;;;;;;;;;5150142;27;20035;-76
2023/08/09 00:49:27;;;;;;;5.25;2.63;;;;;;;;;;5150669;27;20031;-76
2023/08/09 00:51:53;;;;;;;4.13;2.30;;;;;;;;;;5148936;27;20027;-75
2023/08/09 00:54:20;;;;;;;4.68;2.60;;;;;;;;;;5149923;27;20019;-76
2023/08/09 00:56:46;;;;;;;5.18;2.70;;;;;;;;;;5154371;27;20030;-75
2023/08/09 00:59:12;;;;;;;4.28;2.60;;;;;;;;;;5154161;27;20125;-75
2023/08/09 01:01:39;;;;;;;5.60;3.25;;;;;;;;;;5154358;27;20136;-75
2023/08/09 01:04:06;;;;;;;4.20;2.40;;;;;;;;;;5154652;27;20027;-75
2023/08/09 01:06:37;;;;;;;5.55;2.78;;;;;;;;;;5155405;27;20023;-75
2023/08/09 01:09:08;;;;;;;4.90;3.05;;;;;;;;;;5154127;27;20502;-74
2023/08/09 01:11:41;;;;;;;5.68;3.20;;;;;;;;;;5153012;27;20095;-74
2023/08/09 01:14:08;;;;;;;6.47;3.97;;;;;;;;;;5152484;27;20487;-75
2023/08/09 01:16:36;;;;;;;8.60;6.03;;;;;;;;;;5154551;27;20032;-74
2023/08/09 01:19:02;;;;;;;7.43;5.78;;;;;;;;;;5153841;27;20039;-74
2023/08/09 01:21:30;;;;;;;10.13;6.60;;;;;;;;;;5154278;27;20090;-74
2023/08/09 01:23:56;;;;;;;13.05;9.75;;;;;;;;;;5153924;27;20062;-75
2023/08/09 01:26:22;;;;;;;14.55;10.18;;;;;;;;;;5153884;27;20023;-74
2023/08/09 01:28:48;;;;;;;15.13;10.68;;;;;;;;;;5154234;27;20428;-73
2023/08/09 01:31:14;;;;;;;13.18;9.05;;;;;;;;;;5154879;27;20380;-74
2023/08/09 01:33:40;;;;;;;10.95;8.77;;;;;;;;;;5153871;27;20031;-76
2023/08/09 01:36:09;;;;;;;11.55;8.30;;;;;;;;;;5152427;27;20041;-73
2023/08/09 01:38:38;;;;;;;14.73;10.97;;;;;;;;;;5152999;27;20081;-74
2023/08/09 01:41:06;;;;;;;17.60;12.20;;;;;;;;;;5153676;27;20019;-74
2023/08/09 01:43:32;;;;;;;13.20;10.15;;;;;;;;;;5153735;27;20045;-75
2023/08/09 01:45:59;;;;;;;15.20;11.40;;;;;;;;;;5153788;27;20101;-75
2023/08/09 01:48:26;;;;;;;11.13;8.25;;;;;;;;;;5153843;27;20038;-74
2023/08/09 01:50:52;;;;;;;13.48;9.35;;;;;;;;;;5153183;27;20058;-75
2023/08/09 01:53:18;;;;;;;16.63;12.07;;;;;;;;;;5154323;27;20395;-74
2023/08/09 01:55:44;;;;;;;14.15;8.63;;;;;;;;;;5154631;27;20023;-74
2023/08/09 01:58:10;;;;;;;17.20;11.82;;;;;;;;;;5153314;27;20125;-75
2023/08/09 02:00:36;;;;;;;17.75;13.73;;;;;;;;;;5152824;27;20143;-74
2023/08/09 02:03:02;;;;;;;12.40;9.43;;;;;;;;;;5151775;27;20025;-74
2023/08/09 02:05:28;;;;;;;20.13;15.30;;;;;;;;;;5152629;27;20022;-74
2023/08/09 02:07:54;;;;;;;19.33;13.90;;;;;;;;;;5153218;27;20503;-75
2023/08/09 02:10:20;;;;;;;17.52;13.60;;;;;;;;;;5153417;27;20026;-75
2023/08/09 02:12:50;;;;;;;14.10;10.45;;;;;;;;;;5152574;27;20026;-75
2023/08/09 02:15:16;;;;;;;20.98;15.93;;;;;;;;;;5151809;27;20023;-73
2023/08/09 02:17:43;;;;;;;23.25;15.05;;;;;;;;;;5152831;27;20034;-74
2023/08/09 02:20:10;;;;;;;21.70;13.57;;;;;;;;;;5152879;27;20027;-74
2023/08/09 02:22:36;;;;;;;16.60;12.50;;;;;;;;;;5152773;27;20026;-76
2023/08/09 02:25:03;;;;;;;17.35;12.10;;;;;;;;;;5152674;27;20037;-75
2023/08/09 02:27:29;;;;;;;18.05;12.18;;;;;;;;;;5152749;27;20022;-75
2023/08/09 02:29:55;;;;;;;29.73;15.75;;;;;;;;;;5153212;27;20027;-75
2023/08/09 02:32:21;;;;;;;22.45;14.40;;;;;;;;;;5153158;27;20469;-75
2023/08/09 02:34:47;;;;;;;17.80;12.15;;;;;;;;;;5152561;27;20083;-75
2023/08/09 02:37:13;;;;;;;24.05;16.27;;;;;;;;;;5152777;27;20027;-76
2023/08/09 02:39:39;;;;;;;16.48;11.95;;;;;;;;;;5152244;27;20055;-74
2023/08/09 02:42:05;;;;;;;17.83;11.88;;;;;;;;;;5152702;27;20023;-75
2023/08/09 02:44:32;;;;;;;20.38;12.98;;;;;;;;;;5153823;27;20023;-75
2023/08/09 02:46:58;;;;;;;16.20;11.63;;;;;;;;;;5150917;27;20388;-74
2023/08/09 02:49:24;;;;;;;18.50;11.88;;;;;;;;;;5152382;27;20037;-75
2023/08/09 02:51:50;;;;;;;18.98;11.55;;;;;;;;;;5151794;27;20030;-74
2023/08/09 02:54:16;;;;;;;21.27;13.68;;;;;;;;;;5152321;27;20026;-75
2023/08/09 02:56:42;;;;;;;20.13;13.48;;;;;;;;;;5152163;27;20022;-75
2023/08/09 02:59:08;;;;;;;18.38;12.82;;;;;;;;;;5152201;27;20042;-75
2023/08/09 03:01:34;;;;;;;18.05;12.13;;;;;;;;;;5152525;27;20045;-75
2023/08/09 03:04:00;;;;;;;19.23;11.60;;;;;;;;;;5152527;27;20030;-75
2023/08/09 03:06:26;;;;;;;24.75;13.55;;;;;;;;;;5151956;27;20030;-76
2023/08/09 03:08:53;;;;;;;21.98;14.38;;;;;;;;;;5151770;27;20464;-73
2023/08/09 03:11:21;;;;;;;20.70;14.27;;;;;;;;;;5150966;27;20037;-73
2023/08/09 03:13:47;;;;;;;24.10;15.38;;;;;;;;;;5151791;27;20026;-75
2023/08/09 03:16:13;;;;;;;23.33;13.85;;;;;;;;;;5150121;27;20537;-75
2023/08/09 03:18:40;;;;;;;24.35;15.90;;;;;;;;;;5151346;27;20039;-74
2023/08/09 03:21:07;;;;;;;22.33;14.43;;;;;;;;;;5151602;27;20018;-73
2023/08/09 03:23:33;;;;;;;23.55;16.80;;;;;;;;;;5151844;27;20098;-75
2023/08/09 03:25:59;;;;;;;30.02;17.88;;;;;;;;;;5150994;27;20056;-74
2023/08/09 03:28:25;;;;;;;33.55;20.45;;;;;;;;;;5151894;27;20098;-74
2023/08/09 03:30:51;;;;;;;31.85;21.30;;;;;;;;;;5151751;27;20031;-75
2023/08/09 03:33:18;;;;;;;28.58;16.77;;;;;;;;;;5150095;27;20464;-73
2023/08/09 03:35:44;;;;;;;27.73;18.38;;;;;;;;;;5151612;27;20029;-76
2023/08/09 03:38:10;;;;;;;39.70;19.30;;;;;;;;;;5151454;27;20155;-73
2023/08/09 03:40:36;;;;;;;29.10;17.67;;;;;;;;;;5151000;27;20378;-73
2023/08/09 03:43:02;;;;;;;33.17;19.42;;;;;;;;;;5151396;27;20056;-74
2023/08/09 03:45:28;;;;;;;30.02;19.85;;;;;;;;;;5151337;27;20388;-73
2023/08/09 03:47:55;;;;;;;31.40;19.60;;;;;;;;;;5151223;27;20384;-73
2023/08/09 03:50:21;;;;;;;24.80;15.45;;;;;;;;;;5151400;27;20448;-73
2023/08/09 03:52:47;;;;;;;31.00;18.48;;;;;;;;;;5151320;27;20023;-73
2023/08/09 03:55:13;;;;;;;32.78;17.33;;;;;;;;;;5150735;27;20159;-74
2023/08/09 03:57:39;;;;;;;29.92;17.05;;;;;;;;;;5150921;27;20030;-73
2023/08/09 04:00:08;;;;;;;29.40;18.35;;;;;;;;;;5150735;27;20027;-74
2023/08/09 04:02:34;;;;;;;31.67;19.40;;;;;;;;;;5151006;27;20023;-74
2023/08/09 04:05:00;;;;;;;39.75;19.88;;;;;;;;;;5151074;27;20038;-73
2023/08/09 04:07:26;;;;;;;32.88;18.80;;;;;;;;;;5151247;27;20018;-73
2023/08/09 04:09:52;;;;;;;31.65;18.42;;;;;;;;;;5150596;27;20034;-73
2023/08/09 04:12:18;;;;;;;31.13;17.80;;;;;;;;;;5150806;27;20023;-75
2023/08/09 04:14:44;;;;;;;35.00;18.48;;;;;;;;;;5150739;27;20025;-73
2023/08/09 04:17:10;;;;;;;23.75;16.48;;;;;;;;;;5151219;27;20026;-75
2023/08/09 04:19:36;;;;;;;37.75;20.45;;;;;;;;;;5151207;27;20582;-73
2023/08/09 04:22:02;;;;;;;35.38;16.90;;;;;;;;;;5150608;27;20520;-73
2023/08/09 04:24:28;;;;;;;21.52;13.50;;;;;;;;;;5149544;27;20026;-73
2023/08/09 04:26:54;;;;;;;33.42;17.10;;;;;;;;;;5150640;27;20023;-74
2023/08/09 04:29:20;;;;;;;29.02;17.45;;;;;;;;;;5150375;27;20079;-73
2023/08/09 04:31:48;;;;;;;28.27;15.18;;;;;;;;;;5154893;27;20026;-74
2023/08/09 04:34:13;;;;;;;25.83;15.52;;;;;;;;;;5154916;27;20383;-73
2023/08/09 04:36:40;;;;;;;28.17;17.75;;;;;;;;;;5154944;27;20026;-74
2023/08/09 04:39:09;;;;;;;25.02;14.60;;;;;;;;;;5152706;27;20051;-76
2023/08/09 04:41:37;;;;;;;25.58;13.65;;;;;;;;;;5155305;27;20079;-75
2023/08/09 04:44:03;;;;;;;20.45;11.77;;;;;;;;;;5155513;27;20050;-74
2023/08/09 04:46:29;;;;;;;18.63;12.43;;;;;;;;;;5154920;27;20080;-76
2023/08/09 04:48:56;;;;;;;22.60;13.38;;;;;;;;;;5154519;27;20027;-73
2023/08/09 04:51:22;;;;;;;18.40;11.43;;;;;;;;;;5155439;27;20015;-76
2023/08/09 04:53:48;;;;;;;20.90;12.30;;;;;;;;;;5153536;27;20029;-74
2023/08/09 04:56:14;;;;;;;26.17;15.73;;;;;;;;;;5153976;27;20019;-76
2023/08/09 04:58:40;;;;;;;31.27;17.20;;;;;;;;;;5153018;27;20495;-74
2023/08/09 05:01:06;;;;;;;25.23;14.23;;;;;;;;;;5154486;27;20084;-75
2023/08/09 05:03:32;;;;;;;23.05;14.35;;;;;;;;;;5154772;27;20510;-75
2023/08/09 05:05:58;;;;;;;27.00;16.50;;;;;;;;;;5154697;27;20027;-76
2023/08/09 05:08:24;;;;;;;22.92;13.07;;;;;;;;;;5157977;27;20109;-75
2023/08/09 05:10:50;;;;;;;29.85;17.33;;;;;;;;;;5154318;27;20018;-75
2023/08/09 05:13:19;;;;;;;42.67;20.80;;;;;;;;;;5154467;27;20705;-75
2023/08/09 05:15:45;;;;;;;23.48;14.75;;;;;;;;;;5152141;27;20055;-76
2023/08/09 05:18:11;;;;;;;32.60;20.25;;;;;;;;;;5152425;27;20031;-75
2023/08/09 05:20:37;;;;;;;30.30;18.25;;;;;;;;;;5153990;27;20026;-75
2023/08/09 05:23:03;;;;;;;33.25;19.55;;;;;;;;;;5153599;27;20593;-76
2023/08/09 05:25:29;;;;;;;45.30;24.17;;;;;;;;;;5152837;27;20019;-76
2023/08/09 05:27:56;;;;;;;38.78;22.30;;;;;;;;;;5153324;27;20114;-76
2023/08/09 05:30:22;;;;;;;51.13;28.52;;;;;;;;;;5152454;27;20015;-74
2023/08/09 05:32:48;;;;;;;43.47;21.08;;;;;;;;;;5153461;27;20468;-77
2023/08/09 05:35:15;;;;;;;37.53;19.83;;;;;;;;;;5153259;27;20110;-75
2023/08/09 05:37:41;;;;;;;36.63;21.08;;;;;;;;;;5154080;27;20456;-76
2023/08/09 05:40:12;;;;;;;65.65;27.75;;;;;;;;;;5153555;27;20042;-76
2023/08/09 05:42:39;;;;;;;50.75;24.73;;;;;;;;;;5152695;27;20034;-75
2023/08/09 05:45:06;;;;;;;46.58;23.80;;;;;;;;;;5155157;27;20071;-77
2023/08/09 05:47:32;;;;;;;40.38;18.85;;;;;;;;;;5154323;27;20022;-75
2023/08/09 05:49:58;;;;;;;34.65;20.17;;;;;;;;;;5153287;27;20395;-76
2023/08/09 05:52:23;;;;;;;37.70;18.25;;;;;;;;;;5153341;27;20022;-76
2023/08/09 05:54:50;;;;;;;39.58;18.63;;;;;;;;;;5156660;27;20033;-77
2023/08/09 05:57:16;;;;;;;40.92;18.88;;;;;;;;;;5157480;27;20358;-75
2023/08/09 05:59:41;;;;;;;31.38;17.95;;;;;;;;;;5151835;27;20041;-76
2023/08/09 06:02:09;;;;;;;41.22;19.30;;;;;;;;;;5154014;27;20030;-79
2023/08/09 06:04:35;;;;;;;31.88;16.92;;;;;;;;;;5140234;27;20098;-75
2023/08/09 06:07:02;;;;;;;30.25;16.23;;;;;;;;;;5131902;27;20023;-75
2023/08/09 06:09:28;;;;;;;31.65;18.40;;;;;;;;;;5133464;27;20023;-75
2023/08/09 06:11:54;;;;;;;33.42;17.27;;;;;;;;;;5139713;27;20037;-75
2023/08/09 06:14:20;;;;;;;31.10;18.73;;;;;;;;;;5153084;27;20075;-74
2023/08/09 06:16:48;;;;;;;32.08;17.42;;;;;;;;;;5145830;27;20034;-73
2023/08/09 06:19:17;;;;;;;34.08;18.65;;;;;;;;;;5152109;27;20030;-75
2023/08/09 06:21:43;;;;;;;37.75;19.45;;;;;;;;;;5150018;27;20023;-77
2023/08/09 06:24:09;;;;;;;47.95;23.38;;;;;;;;;;5151644;27;20023;-73
2023/08/09 06:26:35;;;;;;;40.15;23.08;;;;;;;;;;5152360;27;20078;-76
2023/08/09 06:29:01;;;;;;;35.00;19.52;;;;;;;;;;5152082;27;20034;-76
2023/08/09 06:31:28;;;;;;;37.50;21.05;;;;;;;;;;5151511;27;20729;-75
2023/08/09 06:33:55;;;;;;;48.97;24.20;;;;;;;;;;5151347;27;20015;-74
2023/08/09 06:36:21;;;;;;;42.00;23.33;;;;;;;;;;5151661;27;20030;-74
2023/08/09 06:38:48;;;;;;;38.85;21.35;;;;;;;;;;5150980;27;20051;-74
2023/08/09 06:41:14;;;;;;;54.67;30.08;;;;;;;;;;5151467;27;20026;-73
2023/08/09 06:43:40;;;;;;;52.03;28.00;;;;;;;;;;5153216;27;20094;-74
2023/08/09 06:46:06;;;;;;;44.50;25.88;;;;;;;;;;5153141;27;20027;-75
2023/08/09 06:48:33;;;;;;;52.60;28.15;;;;;;;;;;5152457;27;20086;-74
2023/08/09 06:51:00;;;;;;;44.80;26.83;;;;;;;;;;5152288;27;20026;-76
2023/08/09 06:53:26;;;;;;;34.75;20.52;;;;;;;;;;5152251;27;20022;-74
2023/08/09 06:55:52;;;;;;;38.15;20.88;;;;;;;;;;5152558;27;20472;-75
2023/08/09 06:58:19;;;;;;;41.72;21.25;;;;;;;;;;5153072;27;20031;-75
2023/08/09 07:00:46;;;;;;;38.53;20.67;;;;;;;;;;5150562;27;20070;-74
2023/08/09 07:03:12;;;;;;;36.10;20.45;;;;;;;;;;5152309;27;20111;-73
2023/08/09 07:05:38;;;;;;;33.25;21.67;;;;;;;;;;5151464;27;20034;-75
2023/08/09 07:08:04;;;;;;;30.38;19.52;;;;;;;;;;5152368;27;20019;-76
2023/08/09 07:10:30;;;;;;;31.08;20.17;;;;;;;;;;5152063;27;20432;-74
2023/08/09 07:12:57;;;;;;;28.75;18.95;;;;;;;;;;5152186;27;20396;-75
2023/08/09 07:15:23;;;;;;;29.48;18.23;;;;;;;;;;5151692;27;20026;-76
2023/08/09 07:17:49;;;;;;;28.83;19.10;;;;;;;;;;5152175;27;20037;-74
2023/08/09 07:20:15;;;;;;;22.70;15.52;;;;;;;;;;5151896;27;20067;-76
2023/08/09 07:22:41;;;;;;;31.15;20.05;;;;;;;;;;5150555;27;20114;-75
2023/08/09 07:25:09;;;;;;;26.92;18.90;;;;;;;;;;5151587;27;20026;-77
2023/08/09 07:27:35;;;;;;;28.13;19.40;;;;;;;;;;5151200;27;20103;-74
2023/08/09 07:30:01;;;;;;;26.45;18.33;;;;;;;;;;5151960;27;20033;-72
2023/08/09 07:32:30;;;;;;;22.30;16.52;;;;;;;;;;5162559;27;20042;-74
2023/08/09 07:34:56;;;;;;;26.25;17.40;;;;;;;;;;5153168;27;20026;-74
2023/08/09 07:37:22;;;;;;;25.95;18.58;;;;;;;;;;5152087;27;20487;-75
2023/08/09 07:39:49;;;;;;;24.45;15.57;;;;;;;;;;5151734;27;20046;-75
2023/08/09 07:42:15;;;;;;;23.38;15.80;;;;;;;;;;5151545;27;20034;-79
2023/08/09 07:44:43;;;;;;;19.08;13.43;;;;;;;;;;5151671;27;20438;-77
2023/08/09 07:47:09;;;;;;;19.92;13.15;;;;;;;;;;5151470;27;20062;-82
2023/08/09 07:49:35;;;;;;;20.70;15.05;;;;;;;;;;5151579;27;20503;-75
2023/08/09 07:52:01;;;;;;;21.10;13.30;;;;;;;;;;5151004;27;20050;-79
2023/08/09 07:54:27;;;;;;;20.90;14.07;;;;;;;;;;5145203;27;20023;-75
2023/08/09 07:56:53;;;;;;;23.08;15.30;;;;;;;;;;5148907;27;20027;-76
2023/08/09 07:59:19;;;;;;;18.35;11.50;;;;;;;;;;5149521;27;20034;-75
2023/08/09 08:01:46;;;;;;;17.85;14.00;;;;;;;;;;5149612;27;20026;-77
2023/08/09 08:04:12;;;;;;;18.50;14.25;;;;;;;;;;5149313;27;20075;-76
2023/08/09 08:06:38;;;;;;;20.77;12.80;;;;;;;;;;5149975;27;20023;-76
2023/08/09 08:09:04;;;;;;;21.02;14.55;;;;;;;;;;5148810;27;20404;-76
2023/08/09 08:11:31;;;;;;;16.13;12.30;;;;;;;;;;5148290;27;20117;-75
2023/08/09 08:13:57;;;;;;;18.27;10.20;;;;;;;;;;5148632;27;20429;-77
2023/08/09 08:16:24;;;;;;;17.98;12.65;;;;;;;;;;5148198;27;20082;-76
2023/08/09 08:18:50;;;;;;;20.33;15.13;;;;;;;;;;5147561;27;20033;-77
2023/08/09 08:21:16;;;;;;;18.10;12.60;;;;;;;;;;5149572;27;20035;-76
2023/08/09 08:23:41;;;;;;;13.50;10.05;;;;;;;;;;5147490;27;20526;-76
2023/08/09 08:26:08;;;;;;;10.07;7.15;;;;;;;;;;5148082;27;20026;-78
2023/08/09 08:28:34;;;;;;;14.82;11.57;;;;;;;;;;5148926;27;20133;-76
2023/08/09 08:31:04;;;;;;;16.55;14.13;;;;;;;;;;5148901;27;20145;-75
2023/08/09 08:33:30;;;;;;;14.30;11.43;;;;;;;;;;5150976;27;20023;-76
2023/08/09 08:35:56;;;;;;;16.60;12.23;;;;;;;;;;5153178;27;20487;-79
2023/08/09 08:38:23;;;;;;;15.48;10.50;;;;;;;;;;5151216;27;20126;-77
2023/08/09 08:40:48;;;;;;;15.50;11.23;;;;;;;;;;5151707;27;20055;-76
2023/08/09 08:43:15;;;;;;;16.42;9.70;;;;;;;;;;5152595;27;20449;-78
2023/08/09 08:45:41;;;;;;;12.15;6.97;;;;;;;;;;5151665;27;20050;-77
2023/08/09 08:48:12;;;;;;;15.63;11.50;;;;;;;;;;5152293;27;20023;-78
2023/08/09 08:50:38;;;;;;;12.35;9.50;;;;;;;;;;5153228;27;20026;-75
2023/08/09 08:53:04;;;;;;;11.50;8.10;;;;;;;;;;5150644;27;20042;-76
2023/08/09 08:55:30;;;;;;;13.45;10.02;;;;;;;;;;5151593;27;20019;-76
2023/08/09 08:57:56;;;;;;;10.75;7.82;;;;;;;;;;5150750;27;20037;-78
2023/08/09 09:00:23;;;;;;;11.00;7.93;;;;;;;;;;5151041;27;20029;-79
2023/08/09 09:02:49;;;;;;;12.50;7.88;;;;;;;;;;5151970;27;20436;-77
2023/08/09 09:05:19;;;;;;;9.63;6.35;;;;;;;;;;5154637;27;20027;-78
2023/08/09 09:07:46;;;;;;;7.53;5.15;;;;;;;;;;5153271;27;20099;-77
2023/08/09 09:10:12;;;;;;;7.43;5.30;;;;;;;;;;5152003;27;20031;-80
2023/08/09 09:12:41;;;;;;;7.55;4.10;;;;;;;;;;5149014;27;20023;-78
2023/08/09 09:15:10;;;;;;;6.40;4.70;;;;;;;;;;5150548;27;20047;-77
2023/08/09 09:17:40;;;;;;;7.85;5.00;;;;;;;;;;5155277;27;20400;-76
2023/08/09 09:20:10;;;;;;;6.63;3.85;;;;;;;;;;5156531;27;20140;-76
2023/08/09 09:22:36;;;;;;;8.25;6.03;;;;;;;;;;5155982;27;20019;-76
2023/08/09 09:25:07;;;;;;;8.35;4.70;;;;;;;;;;5153836;27;20027;-76
2023/08/09 09:27:33;;;;;;;7.55;4.80;;;;;;;;;;5154349;27;20487;-76
2023/08/09 09:30:04;;;;;;;9.30;4.78;;;;;;;;;;5153016;27;20023;-78
2023/08/09 09:32:33;;;;;;;9.30;6.57;;;;;;;;;;5154966;27;20018;-77
2023/08/09 09:34:59;;;;;;;9.93;5.95;;;;;;;;;;5152975;27;20455;-76
2023/08/09 09:37:26;;;;;;;10.52;5.00;;;;;;;;;;5151568;27;20141;-76
2023/08/09 09:39:52;;;;;;;7.50;4.15;;;;;;;;;;5151750;27;20141;-76
2023/08/09 09:42:29;;;;;;;7.82;4.47;;;;;;;;;;5152001;27;20030;-77
2023/08/09 09:45:01;;;;;;;7.03;4.78;;;;;;;;;;5152299;27;20023;-77
2023/08/09 09:47:27;;;;;;;6.32;3.78;;;;;;;;;;5152657;27;20027;-76
2023/08/09 09:49:53;;;;;;;7.40;4.10;;;;;;;;;;5152956;27;20639;-77
2023/08/09 09:52:20;;;;;;;11.15;3.53;;;;;;;;;;5154614;27;20027;-76
2023/08/09 09:54:46;;;;;;;9.82;4.85;;;;;;;;;;5152980;27;20030;-77
2023/08/09 09:57:12;;;;;;;5.75;3.70;;;;;;;;;;5158258;27;20090;-78
2023/08/09 09:59:39;;;;;;;8.18;4.47;;;;;;;;;;5154383;27;20031;-77
2023/08/09 10:02:05;;;;;;;8.63;4.85;;;;;;;;;;5154366;27;20019;-77
2023/08/09 10:04:31;;;;;;;10.55;5.85;;;;;;;;;;5154438;27;20566;-78
2023/08/09 10:06:58;;;;;;;8.40;4.10;;;;;;;;;;5153524;27;20023;-78
2023/08/09 10:09:25;;;;;;;8.05;4.47;;;;;;;;;;5154553;27;20019;-76
2023/08/09 10:11:52;;;;;;;5.55;3.55;;;;;;;;;;5154227;27;20072;-79
2023/08/09 10:14:18;;;;;;;10.70;4.35;;;;;;;;;;5155521;27;20018;-77
2023/08/09 10:16:47;;;;;;;6.55;3.55;;;;;;;;;;5156823;27;20360;-77
2023/08/09 10:19:15;;;;;;;9.57;4.00;;;;;;;;;;5156126;27;20147;-79
2023/08/09 10:21:41;;;;;;;5.85;3.10;;;;;;;;;;5154504;27;20141;-78
2023/08/09 10:24:08;;;;;;;10.32;4.05;;;;;;;;;;5153885;27;20022;-78
2023/08/09 10:26:36;;;;;;;6.95;3.47;;;;;;;;;;5152594;27;20030;-75
2023/08/09 10:29:09;;;;;;;6.97;2.60;;;;;;;;;;5153586;27;20022;-76
2023/08/09 10:31:59;;;;;;;5.65;2.78;;;;;;;;;;5155148;27;20018;-77
2023/08/09 10:34:40;;;;;;;4.18;1.70;;;;;;;;;;5154791;27;20114;-76
2023/08/09 10:37:07;;;;;;;6.68;2.47;;;;;;;;;;5152884;27;20031;-78
2023/08/09 10:39:34;;;;;;;5.72;2.55;;;;;;;;;;5154174;27;20050;-77
2023/08/09 10:42:08;;;;;;;4.22;2.10;;;;;;;;;;5153946;27;20038;-76
2023/08/09 10:44:35;;;;;;;4.43;2.40;;;;;;;;;;5158569;27;20388;-76
2023/08/09 10:47:02;;;;;;;4.47;2.67;;;;;;;;;;5153741;27;20053;-76
2023/08/09 10:49:46;;;;;;;3.90;1.40;;;;;;;;;;5153463;27;20027;-74
2023/08/09 10:52:14;;;;;;;5.70;2.95;;;;;;;;;;5154680;27;20042;-76
2023/08/09 10:54:40;;;;;;;5.47;2.90;;;;;;;;;;5153895;27;20052;-76
2023/08/09 10:57:10;;;;;;;7.50;2.83;;;;;;;;;;5153763;27;20089;-77
2023/08/09 10:59:37;;;;;;;5.63;2.90;;;;;;;;;;5154313;27;20041;-77
2023/08/09 11:02:04;;;;;;;6.60;3.13;;;;;;;;;;5153337;27;20062;-77
2023/08/09 11:04:30;;;;;;;7.93;3.63;;;;;;;;;;5152392;27;20167;-75
2023/08/09 11:06:56;;;;;;;5.90;3.35;;;;;;;;;;5153145;27;20050;-75
2023/08/09 11:09:23;;;;;;;7.85;3.63;;;;;;;;;;5153097;27;20102;-75
2023/08/09 11:11:50;;;;;;;5.85;3.08;;;;;;;;;;5152135;27;20049;-76
2023/08/09 11:14:17;;;;;;;4.70;3.40;;;;;;;;;;5154102;27;20019;-77
2023/08/09 11:16:44;;;;;;;6.47;2.78;;;;;;;;;;5153209;27;20022;-73
2023/08/09 11:19:11;;;;;;;2.97;1.75;;;;;;;;;;5152630;27;20035;-74
2023/08/09 11:21:51;;;;;;;6.93;3.10;;;;;;;;;;5152487;27;20033;-76
2023/08/09 11:24:19;;;;;;;7.32;4.00;;;;;;;;;;5152984;27;20054;-73
2023/08/09 11:26:46;;;;;;;7.18;4.70;;;;;;;;;;5151271;27;20921;-73
2023/08/09 11:29:13;;;;;;;8.02;4.78;;;;;;;;;;5152572;27;20026;-72
2023/08/09 11:31:39;;;;;;;9.43;5.35;;;;;;;;;;5153790;27;20027;-73
2023/08/09 11:34:06;;;;;;;6.95;3.70;;;;;;;;;;5152964;27;20019;-71
2023/08/09 11:36:32;;;;;;;6.57;3.92;;;;;;;;;;5152079;27;20030;-72
2023/08/09 11:38:58;;;;;;;6.68;3.78;;;;;;;;;;5139795;27;20501;-71
2023/08/09 11:41:25;;;;;;;8.75;3.60;;;;;;;;;;5131847;27;20030;-72
2023/08/09 11:43:52;;;;;;;8.30;4.05;;;;;;;;;;5131750;27;20053;-75
2023/08/09 11:46:24;;;;;;;8.02;4.60;;;;;;;;;;5131617;27;20030;-73
2023/08/09 11:48:51;;;;;;;6.85;4.00;;;;;;;;;;5128962;27;20458;-72
2023/08/09 11:51:19;;;;;;;5.55;3.17;;;;;;;;;;5130391;27;20043;-74
2023/08/09 11:53:47;;;;;;;6.90;2.28;;;;;;;;;;5130457;27;20114;-73
2023/08/09 11:56:18;;;;;;;5.57;2.80;;;;;;;;;;5130431;27;20061;-74
2023/08/09 11:58:45;;;;;;;5.90;3.55;;;;;;;;;;5130210;27;20114;-74
2023/08/09 12:01:12;;;;;;;5.93;2.83;;;;;;;;;;5130317;27;20027;-76
2023/08/09 12:03:39;;;;;;;5.07;2.90;;;;;;;;;;5128808;27;20548;-73
2023/08/09 12:06:05;;;;;;;4.63;2.22;;;;;;;;;;5130557;27;20023;-74
2023/08/09 12:08:32;;;;;;;6.15;2.35;;;;;;;;;;5130310;27;20023;-75
2023/08/09 12:10:58;;;;;;;7.78;2.60;;;;;;;;;;5130117;27;20098;-74
2023/08/09 12:13:24;;;;;;;5.82;2.97;;;;;;;;;;5130469;27;20388;-72
2023/08/09 12:15:50;;;;;;;6.38;2.60;;;;;;;;;;5130378;27;20027;-73
2023/08/09 12:18:16;;;;;;;4.28;2.38;;;;;;;;;;5130136;27;20031;-73
2023/08/09 12:20:42;;;;;;;8.23;2.72;;;;;;;;;;5135585;27;20031;-75
2023/08/09 12:23:08;;;;;;;4.72;2.33;;;;;;;;;;5130780;27;20025;-76
2023/08/09 12:25:34;;;;;;;5.82;2.05;;;;;;;;;;5130127;27;20076;-73
2023/08/09 12:28:00;;;;;;;5.57;2.22;;;;;;;;;;5130265;27;20030;-74
2023/08/09 12:30:26;;;;;;;5.07;1.90;;;;;;;;;;5130663;28;20027;-74
2023/08/09 12:32:53;;;;;;;5.03;2.05;;;;;;;;;;5129350;28;20023;-74
2023/08/09 12:35:19;;;;;;;5.60;1.73;;;;;;;;;;5130029;28;20372;-73
2023/08/09 12:37:46;;;;;;;5.68;1.73;;;;;;;;;;5130272;27;20015;-73
2023/08/09 12:40:13;;;;;;;5.35;1.83;;;;;;;;;;5150106;27;20099;-73
2023/08/09 12:42:41;;;;;;;4.18;1.90;;;;;;;;;;5150243;27;20059;-74
2023/08/09 12:45:08;;;;;;;6.97;2.13;;;;;;;;;;5150296;27;20046;-71
2023/08/09 12:47:34;;;;;;;4.75;1.90;;;;;;;;;;5150869;27;20019;-75
2023/08/09 12:50:00;;;;;;;4.82;1.48;;;;;;;;;;5151038;27;20430;-74
2023/08/09 12:52:26;;;;;;;6.63;1.95;;;;;;;;;;5154739;27;20023;-73
2023/08/09 12:54:52;;;;;;;3.95;1.15;;;;;;;;;;5154020;27;20037;-72
2023/08/09 12:57:18;;;;;;;3.65;1.40;;;;;;;;;;5154363;27;20031;-76
2023/08/09 12:59:45;;;;;;;2.95;1.13;;;;;;;;;;5153254;27;20490;-73
2023/08/09 13:02:11;;;;;;;3.72;1.33;;;;;;;;;;5154555;27;20056;-73
2023/08/09 13:04:37;;;;;;;3.72;1.08;;;;;;;;;;5154052;27;20107;-74
2023/08/09 13:07:03;;;;;;;2.90;1.30;;;;;;;;;;5154641;27;20388;-72
2023/08/09 13:09:29;;;;;;;3.67;1.38;;;;;;;;;;5154592;27;20205;-75
2023/08/09 13:12:04;;;;;;;3.42;1.30;;;;;;;;;;5154666;27;20022;-75
2023/08/09 13:14:30;;;;;;;4.50;1.48;;;;;;;;;;5154167;27;20056;-74
2023/08/09 13:16:56;;;;;;;4.70;1.30;;;;;;;;;;5153981;27;20441;-74
2023/08/09 13:19:22;;;;;;;4.38;1.45;;;;;;;;;;5153236;27;20041;-75
2023/08/09 13:21:48;;;;;;;3.45;1.00;;;;;;;;;;5152658;27;20019;-74
2023/08/09 13:24:14;;;;;;;5.80;1.10;;;;;;;;;;5151509;27;20033;-76
2023/08/09 13:26:40;;;;;;;4.00;1.15;;;;;;;;;;5153644;27;20026;-74
2023/08/09 13:29:06;;;;;;;3.60;1.02;;;;;;;;;;5153204;27;20033;-74
2023/08/09 13:31:32;;;;;;;2.47;1.10;;;;;;;;;;5153045;27;20049;-74
2023/08/09 13:33:58;;;;;;;7.30;0.98;;;;;;;;;;5153654;27;20019;-75
2023/08/09 13:36:25;;;;;;;4.50;1.40;;;;;;;;;;5152721;27;20654;-73
2023/08/09 13:38:51;;;;;;;4.18;1.30;;;;;;;;;;5151759;27;20057;-73
2023/08/09 13:41:17;;;;;;;3.53;1.30;;;;;;;;;;5152029;27;20106;-74
2023/08/09 13:43:43;;;;;;;3.25;1.15;;;;;;;;;;5150682;27;20019;-72
2023/08/09 13:46:09;;;;;;;3.13;1.10;;;;;;;;;;5152127;27;20416;-73
2023/08/09 13:48:36;;;;;;;3.60;1.42;;;;;;;;;;5151919;27;20026;-73
2023/08/09 13:51:02;;;;;;;3.42;1.20;;;;;;;;;;5151858;27;20034;-75
2023/08/09 13:53:28;;;;;;;3.53;1.10;;;;;;;;;;5153649;27;20026;-77
2023/08/09 13:55:54;;;;;;;2.97;1.08;;;;;;;;;;5154584;27;20022;-75
2023/08/09 13:58:20;;;;;;;4.65;1.50;;;;;;;;;;5152944;27;20019;-74
2023/08/09 14:00:47;;;;;;;4.55;1.20;;;;;;;;;;5149503;27;20019;-74
2023/08/09 14:03:14;;;;;;;2.63;0.90;;;;;;;;;;5152580;27;20025;-73
2023/08/09 14:05:40;;;;;;;1.95;0.75;;;;;;;;;;5153477;27;20029;-73
2023/08/09 14:08:06;;;;;;;6.90;1.20;;;;;;;;;;5152132;27;20023;-74
2023/08/09 14:10:32;;;;;;;6.40;1.08;;;;;;;;;;5153688;27;20094;-74
2023/08/09 14:12:59;;;;;;;4.03;1.42;;;;;;;;;;5153196;27;20019;-75
2023/08/09 14:15:25;;;;;;;2.65;1.00;;;;;;;;;;5153611;27;20022;-75
2023/08/09 14:17:52;;;;;;;4.55;1.23;;;;;;;;;;5153214;27;20043;-73
2023/08/09 14:20:19;;;;;;;4.72;1.63;;;;;;;;;;5151771;27;20144;-76
2023/08/09 14:22:48;;;;;;;3.00;0.90;;;;;;;;;;5153843;27;20064;-74
2023/08/09 14:25:15;;;;;;;3.67;1.00;;;;;;;;;;5152674;27;20042;-74